createdAt,value
2024-02-14T00:00:56.938Z,-0.99
2024-02-14T00:03:25.143Z,-1.10
2024-02-14T00:05:53.742Z,-1.12
2024-02-14T00:08:22.431Z,-1.36
2024-02-14T00:10:49.964Z,-1.12
2024-02-14T00:13:19.625Z,-1.25
2024-02-14T00:15:47.597Z,-1.35
2024-02-14T00:18:17.824Z,-1.43
2024-02-14T00:20:45.294Z,-1.50
2024-02-14T00:23:12.746Z,-1.36
2024-02-14T00:25:39.585Z,-1.10
2024-02-14T00:28:07.262Z,-1.17
2024-02-14T00:30:35.663Z,-1.13
2024-02-14T00:33:03.360Z,-1.25
2024-02-14T00:35:31.153Z,-1.14
2024-02-14T00:37:58.527Z,-0.88
2024-02-14T00:40:25.876Z,-1.14
2024-02-14T00:42:52.761Z,-1.29
2024-02-14T00:45:20.002Z,-1.16
2024-02-14T00:47:47.330Z,-1.14
2024-02-14T00:50:19.696Z,-1.21
2024-02-14T00:52:46.833Z,-1.35
2024-02-14T00:55:15.275Z,-1.52
2024-02-14T00:57:42.072Z,-1.53
2024-02-14T01:00:10.258Z,-1.57
2024-02-14T01:02:37.215Z,-1.44
2024-02-14T01:05:06.670Z,-1.33
2024-02-14T01:07:34.095Z,-1.39
2024-02-14T01:10:01.572Z,-1.36
2024-02-14T01:12:30.857Z,-1.29
2024-02-14T01:14:57.986Z,-1.13
2024-02-14T01:17:26.254Z,-1.13
2024-02-14T01:19:55.523Z,-1.14
2024-02-14T01:22:23.003Z,-1.05
2024-02-14T01:24:49.764Z,-0.82
2024-02-14T01:27:18.166Z,-0.66
2024-02-14T01:29:46.820Z,-0.65
2024-02-14T01:32:13.739Z,-0.58
2024-02-14T01:34:40.716Z,-0.58
2024-02-14T01:37:11.144Z,-0.57
2024-02-14T01:39:38.150Z,-0.53
2024-02-14T01:42:08.004Z,-0.61
2024-02-14T01:44:35.982Z,-0.49
2024-02-14T01:47:03.423Z,-0.52
2024-02-14T01:49:32.445Z,-0.63
2024-02-14T01:52:04.064Z,-0.83
2024-02-14T01:54:32.828Z,-0.92
2024-02-14T01:57:02.541Z,-1.10
2024-02-14T01:59:29.921Z,-1.27
2024-02-14T02:01:59.418Z,-1.08
2024-02-14T02:04:26.575Z,-0.98
2024-02-14T02:06:57.876Z,-1.12
2024-02-14T02:09:28.066Z,-1.34
2024-02-14T02:11:55.337Z,-1.60
2024-02-14T02:14:25.540Z,-1.79
2024-02-14T02:16:53.410Z,-1.87
2024-02-14T02:19:20.646Z,-1.91
2024-02-14T02:21:48.286Z,-1.99
2024-02-14T02:24:15.657Z,-1.97
2024-02-14T02:26:42.992Z,-1.94
2024-02-14T02:29:10.463Z,-1.81
2024-02-14T02:31:39.341Z,-1.43
2024-02-14T02:34:07.523Z,-1.55
2024-02-14T02:36:37.258Z,-1.64
2024-02-14T02:39:04.562Z,-1.59
2024-02-14T02:41:34.441Z,-1.25
2024-02-14T02:44:02.947Z,-1.16
2024-02-14T02:46:30.957Z,-1.16
2024-02-14T02:49:00.020Z,-1.27
2024-02-14T02:51:29.066Z,-1.50
2024-02-14T02:53:56.249Z,-1.68
2024-02-14T02:56:28.555Z,-1.58
2024-02-14T02:58:56.893Z,-1.60
2024-02-14T03:01:26.236Z,-1.42
2024-02-14T03:03:54.767Z,-1.51
2024-02-14T03:06:25.357Z,-1.78
2024-02-14T03:08:55.065Z,-1.83
2024-02-14T03:11:23.759Z,-1.76
2024-02-14T03:13:50.892Z,-1.86
2024-02-14T03:16:18.672Z,-1.68
2024-02-14T03:18:46.195Z,-1.56
2024-02-14T03:21:13.754Z,-1.65
2024-02-14T03:23:41.421Z,-1.74
2024-02-14T03:26:10.237Z,-1.99
2024-02-14T03:28:37.643Z,-2.08
2024-02-14T03:31:05.237Z,-2.06
2024-02-14T03:33:33.588Z,-1.81
2024-02-14T03:36:01.021Z,-1.69
2024-02-14T03:38:29.334Z,-1.65
2024-02-14T03:40:56.588Z,-1.70
2024-02-14T03:43:25.160Z,-1.70
2024-02-14T03:45:53.415Z,-1.83
2024-02-14T03:48:21.567Z,-1.89
2024-02-14T03:50:49.591Z,-2.03
2024-02-14T03:53:18.936Z,-2.07
2024-02-14T03:55:47.350Z,-2.13
2024-02-14T03:58:17.338Z,-2.20
2024-02-14T04:00:45.775Z,-2.26
2024-02-14T04:03:15.451Z,-2.12
2024-02-14T04:05:42.916Z,-2.00
2024-02-14T04:08:12.060Z,-2.01
2024-02-14T04:10:41.217Z,-2.03
2024-02-14T04:13:08.331Z,-1.97
2024-02-14T04:15:35.594Z,-2.08
2024-02-14T04:18:07.280Z,-2.24
2024-02-14T04:20:37.517Z,-2.34
2024-02-14T04:23:07.904Z,-2.27
2024-02-14T04:25:35.237Z,-2.30
2024-02-14T04:28:04.126Z,-2.19
2024-02-14T04:30:32.373Z,-1.97
2024-02-14T04:33:02.722Z,-1.84
2024-02-14T04:35:30.170Z,-2.23
2024-02-14T04:37:58.155Z,-2.40
2024-02-14T04:40:25.021Z,-2.25
2024-02-14T04:42:52.054Z,-1.93
2024-02-14T04:45:20.057Z,-1.83
2024-02-14T04:47:47.419Z,-1.89
2024-02-14T04:50:15.239Z,-1.82
2024-02-14T04:52:42.463Z,-1.89
2024-02-14T04:55:13.892Z,-2.00
2024-02-14T04:57:40.827Z,-1.97
2024-02-14T05:00:10.556Z,-2.15
2024-02-14T05:02:38.838Z,-2.28
2024-02-14T05:05:07.079Z,-2.17
2024-02-14T05:07:36.361Z,-1.96
2024-02-14T05:10:09.098Z,-1.95
2024-02-14T05:12:36.375Z,-2.27
2024-02-14T05:15:05.878Z,-2.44
2024-02-14T05:17:33.038Z,-2.43
2024-02-14T05:20:00.973Z,-2.44
2024-02-14T05:22:28.890Z,-2.16
2024-02-14T05:24:56.228Z,-2.06
2024-02-14T05:27:23.695Z,-1.92
2024-02-14T05:29:50.600Z,-2.14
2024-02-14T05:32:18.159Z,-2.31
2024-02-14T05:34:45.547Z,-2.19
2024-02-14T05:37:13.562Z,-2.07
2024-02-14T05:39:41.112Z,-1.96
2024-02-14T05:42:08.689Z,-1.93
2024-02-14T05:44:35.882Z,-1.75
2024-02-14T05:47:02.738Z,-1.60
2024-02-14T05:49:31.920Z,-1.55
2024-02-14T05:51:59.326Z,-1.65
2024-02-14T05:54:26.922Z,-1.77
2024-02-14T05:56:54.128Z,-1.42
2024-02-14T05:59:21.005Z,-1.43
2024-02-14T06:01:49.183Z,-1.47
2024-02-14T06:04:19.753Z,-1.47
2024-02-14T06:06:46.705Z,-1.50
2024-02-14T06:09:15.114Z,-1.47
2024-02-14T06:11:43.625Z,-1.46
2024-02-14T06:14:15.687Z,-1.29
2024-02-14T06:16:42.558Z,-1.41
2024-02-14T06:19:10.955Z,-1.56
2024-02-14T06:21:38.020Z,-1.61
2024-02-14T06:24:05.308Z,-1.56
2024-02-14T06:26:34.616Z,-1.40
2024-02-14T06:29:01.950Z,-1.48
2024-02-14T06:31:28.878Z,-1.44
2024-02-14T06:33:58.068Z,-1.41
2024-02-14T06:36:25.361Z,-1.25
2024-02-14T06:38:52.990Z,-1.15
2024-02-14T06:41:21.366Z,-1.20
2024-02-14T06:43:50.538Z,-1.15
2024-02-14T06:46:17.915Z,-0.97
2024-02-14T06:48:45.589Z,-0.88
2024-02-14T06:51:12.663Z,-0.90
2024-02-14T06:53:42.147Z,-0.69
2024-02-14T06:56:09.192Z,-0.52
2024-02-14T06:58:36.319Z,-0.31
2024-02-14T07:01:04.566Z,-0.28
2024-02-14T07:03:31.501Z,-0.32
2024-02-14T07:06:04.713Z,-0.31
2024-02-14T07:08:31.513Z,-0.19
2024-02-14T07:11:00.792Z,-0.25
2024-02-14T07:13:27.567Z,-0.15
2024-02-14T07:15:56.643Z,-0.13
2024-02-14T07:18:25.834Z,-0.02
2024-02-14T07:20:53.599Z,0.16
2024-02-14T07:23:21.592Z,0.23
2024-02-14T07:25:50.121Z,0.39
2024-02-14T07:28:16.988Z,0.44
2024-02-14T07:30:45.143Z,0.51
2024-02-14T07:33:12.510Z,0.39
2024-02-14T07:35:40.061Z,0.45
2024-02-14T07:38:07.320Z,0.62
2024-02-14T07:40:34.759Z,0.91
2024-02-14T07:43:07.369Z,1.01
2024-02-14T07:45:34.759Z,1.06
2024-02-14T07:48:04.514Z,1.21
2024-02-14T07:50:34.113Z,1.25
2024-02-14T07:53:03.311Z,1.32
2024-02-14T07:55:31.350Z,1.37
2024-02-14T07:58:00.927Z,1.53
2024-02-14T08:00:28.341Z,1.63
2024-02-14T08:02:55.230Z,1.72
2024-02-14T08:05:22.295Z,1.76
2024-02-14T08:07:49.640Z,1.88
2024-02-14T08:10:18.052Z,1.98
2024-02-14T08:12:45.077Z,2.10
2024-02-14T08:15:11.973Z,2.17
2024-02-14T08:17:39.037Z,2.30
2024-02-14T08:20:11.654Z,2.42
2024-02-14T08:22:40.637Z,2.52
2024-02-14T08:25:08.291Z,2.50
2024-02-14T08:27:35.512Z,2.56
2024-02-14T08:30:02.914Z,2.64
2024-02-14T08:32:29.844Z,2.78
2024-02-14T08:34:56.813Z,2.95
2024-02-14T08:37:26.126Z,2.94
2024-02-14T08:39:53.161Z,3.14
2024-02-14T08:42:20.323Z,3.26
2024-02-14T08:44:47.590Z,3.48
2024-02-14T08:47:15.637Z,3.60
2024-02-14T08:49:43.443Z,3.76
2024-02-14T08:52:12.596Z,3.93
2024-02-14T08:54:41.981Z,4.04
2024-02-14T08:57:10.081Z,4.23
2024-02-14T08:59:37.047Z,4.14
2024-02-14T09:02:04.645Z,4.23
2024-02-14T09:04:40.467Z,4.22
2024-02-14T09:07:11.085Z,4.28
2024-02-14T09:09:39.070Z,4.49
2024-02-14T09:12:07.327Z,4.88
2024-02-14T09:14:34.644Z,5.15
2024-02-14T09:17:02.275Z,5.73
2024-02-14T09:19:31.512Z,6.35
2024-02-14T09:21:59.028Z,6.83
2024-02-14T09:24:26.399Z,7.18
2024-02-14T09:26:53.857Z,6.94
2024-02-14T09:29:23.447Z,6.93
2024-02-14T09:31:52.757Z,7.34
2024-02-14T09:34:21.789Z,7.14
2024-02-14T09:36:53.359Z,6.60
2024-02-14T09:39:21.555Z,6.35
2024-02-14T09:41:55.657Z,6.25
2024-02-14T09:44:25.012Z,6.44
2024-02-14T09:46:52.064Z,6.85
2024-02-14T09:49:20.871Z,7.31
2024-02-14T09:51:50.298Z,7.80
2024-02-14T09:54:19.450Z,8.47
2024-02-14T09:56:58.780Z,8.37
2024-02-14T09:59:26.418Z,8.11
2024-02-14T10:01:53.798Z,7.71
2024-02-14T10:04:26.820Z,7.18
2024-02-14T10:06:57.348Z,7.65
2024-02-14T10:09:26.941Z,8.15
2024-02-14T10:11:55.686Z,8.39
2024-02-14T10:14:24.800Z,8.58
2024-02-14T10:16:51.655Z,8.69
2024-02-14T10:19:19.974Z,7.73
2024-02-14T10:22:00.474Z,7.58
2024-02-14T10:24:28.844Z,8.01
2024-02-14T10:26:59.172Z,8.00
2024-02-14T10:29:27.157Z,8.25
2024-02-14T10:31:54.961Z,9.34
2024-02-14T10:34:26.777Z,10.16
2024-02-14T10:37:01.733Z,11.13
2024-02-14T10:39:32.639Z,12.14
2024-02-14T10:42:01.399Z,13.18
2024-02-14T10:44:28.632Z,12.21
2024-02-14T10:46:58.268Z,12.29
2024-02-14T10:49:29.940Z,12.46
2024-02-14T10:52:01.974Z,13.13
2024-02-14T10:54:29.998Z,12.91
2024-02-14T10:56:59.785Z,13.56
2024-02-14T10:59:28.853Z,13.67
2024-02-14T11:01:58.513Z,14.23
2024-02-14T11:04:32.196Z,15.59
2024-02-14T11:07:04.041Z,15.47
2024-02-14T11:09:39.480Z,15.95
2024-02-14T11:12:11.917Z,15.40
2024-02-14T11:14:42.242Z,15.37
2024-02-14T11:17:14.349Z,15.90
2024-02-14T11:19:43.399Z,13.84
2024-02-14T11:22:21.060Z,14.41
2024-02-14T11:24:48.409Z,16.01
2024-02-14T11:27:29.804Z,14.97
2024-02-14T11:30:02.633Z,15.31
2024-02-14T11:32:32.233Z,16.11
2024-02-14T11:35:00.240Z,15.70
2024-02-14T11:37:32.856Z,15.65
2024-02-14T11:40:00.496Z,14.86
2024-02-14T11:42:28.717Z,15.06
2024-02-14T11:44:58.730Z,15.29
2024-02-14T11:47:26.328Z,16.04
2024-02-14T11:49:53.996Z,16.58
2024-02-14T11:52:20.903Z,16.22
2024-02-14T11:54:51.560Z,14.92
2024-02-14T11:57:22.710Z,13.36
2024-02-14T11:59:54.914Z,13.75
2024-02-14T12:02:22.790Z,14.02
2024-02-14T12:04:55.385Z,14.71
2024-02-14T12:07:23.732Z,14.59
2024-02-14T12:09:56.630Z,14.27
2024-02-14T12:12:24.407Z,13.98
2024-02-14T12:14:54.325Z,13.19
2024-02-14T12:17:22.305Z,12.71
2024-02-14T12:19:53.392Z,12.13
2024-02-14T12:22:23.053Z,11.55
2024-02-14T12:24:50.895Z,11.33
2024-02-14T12:27:21.341Z,11.25
2024-02-14T12:29:49.945Z,11.04
2024-02-14T12:32:18.795Z,10.91
2024-02-14T12:34:45.981Z,10.84
2024-02-14T12:37:13.375Z,10.63
2024-02-14T12:39:41.924Z,10.43
2024-02-14T12:42:09.687Z,10.59
2024-02-14T12:44:37.865Z,10.57
2024-02-14T12:47:06.221Z,10.22
2024-02-14T12:49:36.321Z,10.06
2024-02-14T12:52:06.229Z,9.90
2024-02-14T12:54:33.748Z,9.87
2024-02-14T12:57:01.327Z,9.94
2024-02-14T12:59:28.690Z,10.06
2024-02-14T13:01:57.194Z,10.21
2024-02-14T13:04:24.356Z,10.37
2024-02-14T13:06:51.655Z,10.49
2024-02-14T13:09:19.103Z,10.32
2024-02-14T13:11:46.636Z,10.21
2024-02-14T13:14:14.084Z,10.33
2024-02-14T13:16:41.938Z,10.48
2024-02-14T13:19:09.441Z,10.39
2024-02-14T13:21:39.386Z,10.29
2024-02-14T13:24:06.969Z,10.30
2024-02-14T13:26:35.587Z,10.34
2024-02-14T13:29:02.801Z,10.34
2024-02-14T13:31:30.149Z,10.39
2024-02-14T13:33:58.309Z,10.47
2024-02-14T13:36:25.638Z,10.48
2024-02-14T13:38:53.556Z,10.23
2024-02-14T13:41:21.669Z,10.25
2024-02-14T13:43:49.205Z,10.17
2024-02-14T13:46:16.442Z,10.04
2024-02-14T13:48:45.514Z,10.00
2024-02-14T13:51:13.123Z,9.98
2024-02-14T13:53:40.461Z,9.95
2024-02-14T13:56:08.206Z,9.98
2024-02-14T13:58:36.488Z,10.07
2024-02-14T14:01:08.448Z,10.21
2024-02-14T14:03:37.924Z,10.10
2024-02-14T14:06:09.421Z,10.22
2024-02-14T14:08:37.538Z,10.82
2024-02-14T14:11:05.113Z,11.14
2024-02-14T14:13:34.799Z,11.27
2024-02-14T14:16:02.749Z,11.02
2024-02-14T14:18:30.874Z,10.98
2024-02-14T14:20:57.958Z,10.84
2024-02-14T14:23:26.398Z,10.45
2024-02-14T14:25:53.710Z,10.57
2024-02-14T14:28:25.840Z,10.87
2024-02-14T14:30:53.636Z,11.42
2024-02-14T14:33:22.625Z,11.73
2024-02-14T14:35:56.259Z,12.18
2024-02-14T14:38:27.712Z,12.07
2024-02-14T14:40:57.098Z,12.22
2024-02-14T14:43:25.044Z,12.36
2024-02-14T14:45:54.462Z,11.95
2024-02-14T14:48:24.148Z,12.00
2024-02-14T14:50:51.410Z,12.85
2024-02-14T14:53:21.358Z,13.69
2024-02-14T14:55:57.605Z,13.40
2024-02-14T14:58:28.842Z,13.25
2024-02-14T15:01:00.224Z,13.21
2024-02-14T15:03:28.097Z,12.63
2024-02-14T15:05:55.623Z,12.17
2024-02-14T15:08:27.049Z,11.87
2024-02-14T15:10:56.742Z,11.16
2024-02-14T15:13:25.412Z,10.91
2024-02-14T15:15:54.322Z,10.44
2024-02-14T15:18:21.654Z,10.37
2024-02-14T15:20:48.928Z,10.26
2024-02-14T15:23:16.006Z,10.16
2024-02-14T15:25:42.969Z,9.98
2024-02-14T15:28:15.506Z,9.95
2024-02-14T15:30:59.908Z,9.85
2024-02-14T15:33:30.438Z,9.66
2024-02-14T15:36:00.774Z,9.70
2024-02-14T15:38:28.233Z,9.67
2024-02-14T15:41:02.626Z,9.79
2024-02-14T15:43:30.447Z,9.71
2024-02-14T15:45:58.750Z,9.64
2024-02-14T15:48:28.876Z,9.58
2024-02-14T15:50:58.548Z,9.46
2024-02-14T15:53:28.138Z,9.51
2024-02-14T15:55:56.576Z,9.40
2024-02-14T15:58:23.515Z,9.39
2024-02-14T16:00:50.421Z,9.42
2024-02-14T16:03:17.277Z,9.39
2024-02-14T16:05:47.424Z,9.24
2024-02-14T16:08:17.827Z,9.18
2024-02-14T16:10:45.784Z,9.17
2024-02-14T16:13:13.637Z,9.11
2024-02-14T16:15:40.485Z,9.00
2024-02-14T16:18:07.515Z,8.95
2024-02-14T16:20:34.426Z,8.91
2024-02-14T16:23:01.945Z,9.09
2024-02-14T16:25:31.960Z,9.04
2024-02-14T16:28:00.410Z,9.05
2024-02-14T16:30:27.422Z,8.89
2024-02-14T16:32:54.769Z,8.78
2024-02-14T16:35:22.881Z,8.68
2024-02-14T16:37:49.901Z,8.66
2024-02-14T16:40:16.802Z,8.59
2024-02-14T16:42:44.201Z,8.60
2024-02-14T16:45:11.480Z,8.54
2024-02-14T16:47:42.477Z,8.50
2024-02-14T16:50:09.643Z,8.48
2024-02-14T16:52:36.952Z,8.40
2024-02-14T16:55:04.790Z,8.42
2024-02-14T16:57:32.914Z,8.46
2024-02-14T16:59:59.744Z,8.49
2024-02-14T17:02:26.827Z,8.35
2024-02-14T17:04:54.035Z,8.44
2024-02-14T17:07:20.963Z,8.41
2024-02-14T17:09:48.384Z,8.40
2024-02-14T17:12:17.236Z,8.41
2024-02-14T17:14:47.989Z,8.38
2024-02-14T17:17:15.446Z,8.23
2024-02-14T17:19:42.475Z,8.32
2024-02-14T17:22:17.868Z,8.30
2024-02-14T17:24:56.945Z,8.29
2024-02-14T17:27:24.977Z,8.31
2024-02-14T17:29:53.357Z,8.28
2024-02-14T17:32:31.892Z,8.21
2024-02-14T17:35:04.914Z,8.23
2024-02-14T17:37:34.983Z,8.22
2024-02-14T17:40:03.037Z,8.23
2024-02-14T17:42:30.431Z,8.08
2024-02-14T17:44:58.774Z,8.06
2024-02-14T17:47:32.276Z,8.13
2024-02-14T17:49:59.823Z,8.13
2024-02-14T17:52:26.915Z,8.06
2024-02-14T17:54:56.155Z,7.87
2024-02-14T17:57:27.332Z,7.89
2024-02-14T17:59:55.459Z,7.95
2024-02-14T18:02:23.593Z,7.85
2024-02-14T18:04:52.162Z,7.92
2024-02-14T18:07:19.635Z,7.85
2024-02-14T18:09:46.626Z,7.63
2024-02-14T18:12:14.770Z,7.53
2024-02-14T18:14:42.009Z,7.58
2024-02-14T18:17:09.931Z,7.52
2024-02-14T18:19:37.142Z,7.82
2024-02-14T18:22:04.482Z,7.66
2024-02-14T18:24:32.459Z,7.47
2024-02-14T18:27:01.526Z,7.37
2024-02-14T18:29:30.389Z,7.37
2024-02-14T18:31:57.539Z,7.36
2024-02-14T18:34:24.814Z,7.34
2024-02-14T18:36:55.107Z,7.45
2024-02-14T18:39:22.848Z,7.39
2024-02-14T18:41:50.011Z,7.47
2024-02-14T18:44:16.890Z,7.61
2024-02-14T18:46:47.399Z,7.72
2024-02-14T18:49:17.493Z,7.90
2024-02-14T18:51:44.980Z,7.96
2024-02-14T18:54:12.209Z,7.94
2024-02-14T18:56:42.083Z,7.97
2024-02-14T18:59:10.412Z,7.83
2024-02-14T19:01:39.495Z,7.76
2024-02-14T19:04:07.285Z,7.88
2024-02-14T19:06:36.263Z,8.06
2024-02-14T19:09:06.000Z,7.88
2024-02-14T19:11:33.208Z,7.81
2024-02-14T19:14:00.393Z,8.01
2024-02-14T19:16:29.374Z,8.01
2024-02-14T19:18:58.151Z,7.96
2024-02-14T19:21:25.877Z,7.95
2024-02-14T19:23:53.254Z,7.91
2024-02-14T19:26:22.643Z,7.99
2024-02-14T19:28:51.090Z,7.94
2024-02-14T19:31:18.514Z,7.94
2024-02-14T19:33:47.432Z,7.90
2024-02-14T19:36:15.055Z,7.91
2024-02-14T19:38:41.988Z,7.90
2024-02-14T19:41:09.613Z,7.81
2024-02-14T19:43:40.105Z,7.70
2024-02-14T19:46:12.110Z,7.82
2024-02-14T19:48:39.684Z,7.85
2024-02-14T19:51:07.333Z,7.81
2024-02-14T19:53:36.332Z,7.74
2024-02-14T19:56:04.924Z,7.66
2024-02-14T19:58:33.968Z,7.58
2024-02-14T20:01:00.873Z,7.50
2024-02-14T20:03:28.406Z,7.49
2024-02-14T20:05:55.696Z,7.41
2024-02-14T20:08:26.567Z,7.41
2024-02-14T20:10:56.994Z,7.47
2024-02-14T20:13:24.791Z,7.42
2024-02-14T20:15:53.092Z,7.38
2024-02-14T20:18:20.647Z,7.37
2024-02-14T20:20:52.347Z,7.41
2024-02-14T20:23:19.920Z,7.48
2024-02-14T20:25:48.627Z,7.56
2024-02-14T20:28:15.931Z,7.48
2024-02-14T20:30:43.501Z,7.48
2024-02-14T20:33:12.386Z,7.53
2024-02-14T20:35:39.705Z,7.41
2024-02-14T20:38:11.037Z,7.40
2024-02-14T20:40:39.311Z,7.40
2024-02-14T20:43:07.224Z,7.41
2024-02-14T20:45:37.555Z,7.27
2024-02-14T20:48:05.943Z,7.20
2024-02-14T20:50:33.183Z,7.19
2024-02-14T20:53:00.663Z,7.13
2024-02-14T20:55:27.609Z,7.09
2024-02-14T20:57:55.490Z,7.05
2024-02-14T21:00:24.308Z,7.10
2024-02-14T21:02:51.676Z,7.03
2024-02-14T21:05:18.954Z,7.05
2024-02-14T21:07:46.789Z,7.09
2024-02-14T21:10:17.328Z,7.12
2024-02-14T21:12:44.783Z,7.23
2024-02-14T21:15:11.989Z,7.18
2024-02-14T21:17:39.406Z,7.25
2024-02-14T21:20:11.044Z,7.22
2024-02-14T21:22:38.866Z,7.17
2024-02-14T21:25:06.663Z,7.09
2024-02-14T21:27:36.372Z,7.11
2024-02-14T21:30:03.973Z,7.19
2024-02-14T21:32:33.263Z,7.22
2024-02-14T21:35:01.759Z,7.20
2024-02-14T21:37:28.533Z,7.24
2024-02-14T21:39:55.518Z,7.18
2024-02-14T21:42:22.464Z,7.20
2024-02-14T21:44:49.705Z,7.21
2024-02-14T21:47:17.352Z,7.26
2024-02-14T21:49:46.723Z,7.17
2024-02-14T21:52:13.881Z,7.23
2024-02-14T21:54:40.945Z,7.20
2024-02-14T21:57:08.480Z,7.29
2024-02-14T21:59:35.719Z,7.27
2024-02-14T22:02:06.942Z,7.23
2024-02-14T22:04:34.809Z,7.26
2024-02-14T22:07:03.102Z,7.33
2024-02-14T22:09:30.904Z,7.36
2024-02-14T22:11:59.526Z,7.34
2024-02-14T22:14:27.618Z,7.35
2024-02-14T22:16:59.460Z,7.39
2024-02-14T22:19:26.643Z,7.36
2024-02-14T22:21:55.986Z,7.31
2024-02-14T22:24:27.572Z,7.36
2024-02-14T22:26:55.801Z,7.35
2024-02-14T22:29:24.470Z,7.39
2024-02-14T22:31:53.818Z,7.33
2024-02-14T22:34:22.169Z,7.39
2024-02-14T22:36:49.600Z,7.34
2024-02-14T22:39:16.617Z,7.26
2024-02-14T22:41:44.285Z,7.28
2024-02-14T22:44:11.587Z,7.41
2024-02-14T22:46:40.213Z,7.43
2024-02-14T22:49:07.641Z,7.50
2024-02-14T22:51:38.621Z,7.39
2024-02-14T22:54:06.099Z,7.51
2024-02-14T22:56:33.398Z,7.47
2024-02-14T22:59:00.745Z,7.48
2024-02-14T23:01:28.091Z,7.44
2024-02-14T23:03:55.338Z,7.56
2024-02-14T23:06:23.041Z,7.58
2024-02-14T23:08:50.274Z,7.50
2024-02-14T23:11:19.250Z,7.58
2024-02-14T23:13:46.841Z,7.67
2024-02-14T23:16:14.089Z,7.58
2024-02-14T23:18:41.135Z,7.46
2024-02-14T23:21:08.654Z,7.39
2024-02-14T23:23:36.028Z,7.54
2024-02-14T23:26:03.570Z,7.30
2024-02-14T23:28:31.913Z,6.99
2024-02-14T23:30:58.852Z,7.11
2024-02-14T23:33:26.471Z,7.06
2024-02-14T23:35:53.817Z,7.15
2024-02-14T23:38:21.343Z,7.17
2024-02-14T23:40:50.602Z,6.95
2024-02-14T23:43:18.413Z,7.04
2024-02-14T23:45:45.948Z,7.03
2024-02-14T23:48:13.232Z,7.20
2024-02-14T23:50:41.837Z,7.11
2024-02-14T23:53:12.062Z,7.35
2024-02-14T23:55:41.333Z,7.39
2024-02-14T23:58:11.254Z,7.37
